createdAt,value
2018-12-17T00:00:13.644Z,72.77
2018-12-17T00:02:41.472Z,72.57
2018-12-17T00:05:09.717Z,77.07
2018-12-17T00:07:37.584Z,75.17
2018-12-17T00:10:06.659Z,76.80
2018-12-17T00:12:34.572Z,80.60
2018-12-17T00:15:08.755Z,77.23
2018-12-17T00:17:36.732Z,70.27
2018-12-17T00:20:09.846Z,74.00
2018-12-17T00:22:37.658Z,88.20
2018-12-17T00:25:05.936Z,84.40
2018-12-17T00:27:33.852Z,68.30
2018-12-17T00:30:01.847Z,75.53
2018-12-17T00:32:30.200Z,70.63
2018-12-17T00:35:07.450Z,74.07
2018-12-17T00:37:35.297Z,63.97
2018-12-17T00:40:12.639Z,64.53
2018-12-17T00:42:40.814Z,64.60
2018-12-17T00:45:08.727Z,66.60
2018-12-17T00:47:37.815Z,60.30
2018-12-17T00:50:06.055Z,60.60
2018-12-17T00:52:38.505Z,52.27
2018-12-17T00:55:06.538Z,52.63
2018-12-17T00:57:35.385Z,49.70
2018-12-17T01:00:04.401Z,63.03
2018-12-17T01:02:32.436Z,55.00
2018-12-17T01:05:00.247Z,52.53
2018-12-17T01:07:30.802Z,43.13
2018-12-17T01:09:58.689Z,49.97
2018-12-17T01:12:26.863Z,43.97
2018-12-17T01:14:54.833Z,40.63
2018-12-17T01:17:23.077Z,45.47
2018-12-17T01:19:50.898Z,42.97
2018-12-17T01:22:21.460Z,44.77
2018-12-17T01:24:49.321Z,43.20
2018-12-17T01:27:17.349Z,42.77
2018-12-17T01:29:45.172Z,38.20
2018-12-17T01:32:14.356Z,43.53
2018-12-17T01:34:42.233Z,42.10
2018-12-17T01:37:11.541Z,47.97
2018-12-17T01:39:39.353Z,39.97
2018-12-17T01:42:07.723Z,47.47
2018-12-17T01:44:35.774Z,46.20
2018-12-17T01:47:03.790Z,39.77
2018-12-17T01:49:31.642Z,45.87
2018-12-17T01:52:01.977Z,42.87
2018-12-17T01:54:30.071Z,37.63
2018-12-17T01:56:58.151Z,38.63
2018-12-17T01:59:25.987Z,39.03
2018-12-17T02:01:53.974Z,35.93
2018-12-17T02:04:21.809Z,37.93
2018-12-17T02:06:49.905Z,34.03
2018-12-17T02:09:17.868Z,36.77
2018-12-17T02:11:50.608Z,36.83
2018-12-17T02:14:18.420Z,36.57
2018-12-17T02:16:46.423Z,31.03
2018-12-17T02:19:14.223Z,34.73
2018-12-17T02:21:42.176Z,33.10
2018-12-17T02:24:10.054Z,31.53
2018-12-17T02:26:38.016Z,33.13
2018-12-17T02:29:06.121Z,32.63
2018-12-17T02:31:33.950Z,44.70
2018-12-17T02:34:01.822Z,42.33
2018-12-17T02:36:29.707Z,36.70
2018-12-17T02:38:57.504Z,36.20
2018-12-17T02:41:25.451Z,35.37
2018-12-17T02:43:53.737Z,32.57
2018-12-17T02:46:21.530Z,33.00
2018-12-17T02:48:49.469Z,37.07
2018-12-17T02:51:17.311Z,34.83
2018-12-17T02:53:45.178Z,29.50
2018-12-17T02:56:13.003Z,36.23
2018-12-17T02:58:43.971Z,31.73
2018-12-17T03:01:11.821Z,33.67
2018-12-17T03:03:39.680Z,30.80
2018-12-17T03:06:07.480Z,34.70
2018-12-17T03:08:35.338Z,33.80
2018-12-17T03:11:03.291Z,37.37
2018-12-17T03:13:31.200Z,38.80
2018-12-17T03:15:59.102Z,43.27
2018-12-17T03:18:27.009Z,33.57
2018-12-17T03:20:54.864Z,29.33
2018-12-17T03:23:22.722Z,35.87
2018-12-17T03:25:50.557Z,30.77
2018-12-17T03:28:18.449Z,33.77
2018-12-17T03:30:46.288Z,30.47
2018-12-17T03:33:15.323Z,27.77
2018-12-17T03:35:43.145Z,27.67
2018-12-17T03:38:11.046Z,30.53
2018-12-17T03:40:38.863Z,32.47
2018-12-17T03:43:06.685Z,29.87
2018-12-17T03:45:34.632Z,35.23
2018-12-17T03:48:02.470Z,21.33
2018-12-17T03:50:30.423Z,24.27
2018-12-17T03:52:58.265Z,23.93
2018-12-17T03:55:26.157Z,23.00
2018-12-17T03:57:54.128Z,20.57
2018-12-17T04:00:21.962Z,20.60
2018-12-17T04:02:49.966Z,19.27
2018-12-17T04:05:17.817Z,21.77
2018-12-17T04:07:45.682Z,21.77
2018-12-17T04:10:13.497Z,21.43
2018-12-17T04:12:41.637Z,20.77
2018-12-17T04:15:09.697Z,20.93
2018-12-17T04:17:37.614Z,17.63
2018-12-17T04:20:05.578Z,21.83
2018-12-17T04:22:33.496Z,18.50
2018-12-17T04:25:01.398Z,21.40
2018-12-17T04:27:29.446Z,18.97
2018-12-17T04:29:57.298Z,17.43
2018-12-17T04:32:25.196Z,19.50
2018-12-17T04:34:53.217Z,15.83
2018-12-17T04:37:21.149Z,14.87
2018-12-17T04:39:49.170Z,14.10
2018-12-17T04:42:17.100Z,17.77
2018-12-17T04:44:45.047Z,16.67
2018-12-17T04:47:13.409Z,17.00
2018-12-17T04:49:41.254Z,15.80
2018-12-17T04:52:09.329Z,15.20
2018-12-17T04:54:37.335Z,14.97
2018-12-17T04:57:05.467Z,11.33
2018-12-17T04:59:33.289Z,14.00
2018-12-17T05:02:02.652Z,12.97
2018-12-17T05:04:30.497Z,14.77
2018-12-17T05:06:58.392Z,14.07
2018-12-17T05:09:26.211Z,14.93
2018-12-17T05:11:54.329Z,15.10
2018-12-17T05:14:22.360Z,14.77
2018-12-17T05:16:50.420Z,13.07
2018-12-17T05:19:18.248Z,15.10
2018-12-17T05:21:47.193Z,10.23
2018-12-17T05:24:15.360Z,15.27
2018-12-17T05:26:43.229Z,13.60
2018-12-17T05:29:11.194Z,13.00
2018-12-17T05:31:39.070Z,11.63
2018-12-17T05:34:08.365Z,13.20
2018-12-17T05:36:36.603Z,14.33
2018-12-17T05:39:05.441Z,12.57
2018-12-17T05:41:33.376Z,16.40
2018-12-17T05:44:01.670Z,16.40
2018-12-17T05:46:29.537Z,11.23
2018-12-17T05:48:57.391Z,15.67
2018-12-17T05:51:25.270Z,15.30
2018-12-17T05:53:53.368Z,16.33
2018-12-17T05:56:21.436Z,16.10
2018-12-17T05:58:49.482Z,15.30
2018-12-17T06:01:17.553Z,12.40
2018-12-17T06:03:46.862Z,15.20
2018-12-17T06:06:14.855Z,14.80
2018-12-17T06:08:42.806Z,14.40
2018-12-17T06:11:10.662Z,17.13
2018-12-17T06:13:38.663Z,13.67
2018-12-17T06:16:06.619Z,17.87
2018-12-17T06:18:34.948Z,15.00
2018-12-17T06:21:03.484Z,12.93
2018-12-17T06:23:31.640Z,11.13
2018-12-17T06:25:59.697Z,16.57
2018-12-17T06:28:27.717Z,11.50
2018-12-17T06:30:55.665Z,16.07
2018-12-17T06:33:25.094Z,13.43
2018-12-17T06:35:52.980Z,12.10
2018-12-17T06:38:21.023Z,10.47
2018-12-17T06:40:48.925Z,8.90
2018-12-17T06:43:16.825Z,12.80
2018-12-17T06:45:44.639Z,12.17
2018-12-17T06:48:17.102Z,6.03
2018-12-17T06:50:42.565Z,8.80
2018-12-17T06:53:10.507Z,13.77
2018-12-17T06:55:38.384Z,9.87
2018-12-17T06:58:06.690Z,8.77
2018-12-17T07:00:34.731Z,7.40
2018-12-17T07:03:02.727Z,5.23
2018-12-17T07:05:30.735Z,8.43
2018-12-17T07:07:59.110Z,5.03
2018-12-17T07:10:27.042Z,12.27
2018-12-17T07:12:55.307Z,6.57
2018-12-17T07:15:23.361Z,7.77
2018-12-17T07:17:51.607Z,5.93
2018-12-17T07:20:19.727Z,10.60
2018-12-17T07:22:47.875Z,4.00
2018-12-17T07:25:15.732Z,6.50
2018-12-17T07:27:44.143Z,7.43
2018-12-17T07:30:12.272Z,10.63
2018-12-17T07:32:41.928Z,4.70
2018-12-17T07:35:09.974Z,6.33
2018-12-17T07:37:38.010Z,5.40
2018-12-17T07:40:06.177Z,5.27
2018-12-17T07:42:34.392Z,8.80
2018-12-17T07:45:08.545Z,10.17
2018-12-17T07:47:39.249Z,8.93
2018-12-17T07:50:09.417Z,7.77
2018-12-17T07:52:39.413Z,9.07
2018-12-17T07:55:08.049Z,5.77
2018-12-17T07:57:36.400Z,8.93
2018-12-17T08:00:07.121Z,2.70
2018-12-17T08:02:35.235Z,7.00
2018-12-17T08:05:03.377Z,6.23
2018-12-17T08:07:31.266Z,2.30
2018-12-17T08:10:00.158Z,4.97
2018-12-17T08:12:27.979Z,13.70
2018-12-17T08:14:56.293Z,8.70
2018-12-17T08:17:24.244Z,8.73
2018-12-17T08:19:52.424Z,4.80
2018-12-17T08:22:20.508Z,9.07
2018-12-17T08:24:48.585Z,7.23
2018-12-17T08:27:16.643Z,7.50
2018-12-17T08:29:45.537Z,2.57
2018-12-17T08:32:13.398Z,7.73
2018-12-17T08:34:42.442Z,4.17
2018-12-17T08:37:10.359Z,2.93
2018-12-17T08:39:38.464Z,3.60
2018-12-17T08:42:06.499Z,5.00
2018-12-17T08:44:34.554Z,3.03
2018-12-17T08:47:02.604Z,3.90
2018-12-17T08:49:30.475Z,5.57
2018-12-17T08:51:58.581Z,4.30
2018-12-17T08:54:26.386Z,3.63
2018-12-17T08:56:54.780Z,6.60
2018-12-17T08:59:22.845Z,8.20
2018-12-17T09:01:50.681Z,4.57
2018-12-17T09:04:18.720Z,3.47
2018-12-17T09:06:46.524Z,2.80
2018-12-17T09:09:14.556Z,5.93
2018-12-17T09:11:42.441Z,10.77
2018-12-17T09:14:10.398Z,4.47
2018-12-17T09:16:38.244Z,7.20
2018-12-17T09:19:06.126Z,4.83
2018-12-17T09:21:33.932Z,4.30
2018-12-17T09:24:01.868Z,3.53
2018-12-17T09:26:29.725Z,8.17
2018-12-17T09:28:57.678Z,10.17
2018-12-17T09:31:25.566Z,6.23
2018-12-17T09:33:53.617Z,4.73
2018-12-17T09:36:21.497Z,8.03
2018-12-17T09:38:49.552Z,8.37
2018-12-17T09:41:17.503Z,5.23
2018-12-17T09:43:45.311Z,8.17
2018-12-17T09:46:13.151Z,6.87
2018-12-17T09:48:41.137Z,5.90
2018-12-17T09:51:08.988Z,7.13
2018-12-17T09:53:36.950Z,14.83
2018-12-17T09:56:04.895Z,11.90
2018-12-17T09:58:32.988Z,5.20
2018-12-17T10:01:00.963Z,11.20
2018-12-17T10:03:28.979Z,8.27
2018-12-17T10:05:56.869Z,6.67
2018-12-17T10:08:25.642Z,11.43
2018-12-17T10:10:53.508Z,6.27
2018-12-17T10:13:22.434Z,7.43
2018-12-17T10:15:50.293Z,8.27
2018-12-17T10:18:18.269Z,5.57
2018-12-17T10:20:46.111Z,8.47
2018-12-17T10:23:14.108Z,4.60
2018-12-17T10:25:41.973Z,10.93
2018-12-17T10:28:09.911Z,9.33
2018-12-17T10:30:37.766Z,9.00
2018-12-17T10:33:05.725Z,14.87
2018-12-17T10:35:33.769Z,4.87
2018-12-17T10:38:03.283Z,8.57
2018-12-17T10:40:33.269Z,7.67
2018-12-17T10:43:01.142Z,5.10
2018-12-17T10:45:29.030Z,7.47
2018-12-17T10:47:57.040Z,8.87
2018-12-17T10:50:24.855Z,9.03
2018-12-17T10:52:52.798Z,13.53
2018-12-17T10:55:20.632Z,9.30
2018-12-17T10:57:48.525Z,10.50
2018-12-17T11:00:21.908Z,6.33
2018-12-17T11:02:50.368Z,3.90
2018-12-17T11:05:18.595Z,7.13
2018-12-17T11:07:46.619Z,6.33
2018-12-17T11:10:14.765Z,12.10
2018-12-17T11:12:42.787Z,5.83
2018-12-17T11:15:10.837Z,8.90
2018-12-17T11:17:38.944Z,8.80
2018-12-17T11:20:07.971Z,7.43
2018-12-17T11:22:36.023Z,9.60
2018-12-17T11:25:04.140Z,6.10
2018-12-17T11:27:32.182Z,12.33
2018-12-17T11:30:00.065Z,10.63
2018-12-17T11:32:28.135Z,9.43
2018-12-17T11:34:55.971Z,8.70
2018-12-17T11:37:24.068Z,10.13
2018-12-17T11:39:51.956Z,10.50
2018-12-17T11:42:20.208Z,5.77
2018-12-17T11:44:48.321Z,7.27
2018-12-17T11:47:16.134Z,10.40
2018-12-17T11:49:44.829Z,10.33
2018-12-17T11:52:12.776Z,8.97
2018-12-17T11:54:40.759Z,7.10
2018-12-17T11:57:16.185Z,16.37
2018-12-17T11:59:44.000Z,12.30
2018-12-17T12:02:12.118Z,7.93
2018-12-17T12:04:39.954Z,9.47
2018-12-17T12:07:08.987Z,12.17
2018-12-17T12:09:36.843Z,12.50
2018-12-17T12:12:04.765Z,7.57
2018-12-17T12:14:32.666Z,9.53
2018-12-17T12:17:00.754Z,8.43
2018-12-17T12:19:28.593Z,5.53
2018-12-17T12:21:56.692Z,11.93
2018-12-17T12:24:24.561Z,8.47
2018-12-17T12:26:53.010Z,7.90
2018-12-17T12:29:22.158Z,7.10
2018-12-17T12:31:50.405Z,8.37
2018-12-17T12:34:18.363Z,4.03
2018-12-17T12:36:46.522Z,9.33
2018-12-17T12:39:14.412Z,9.03
2018-12-17T12:41:42.479Z,7.47
2018-12-17T12:44:10.323Z,7.27
2018-12-17T12:46:38.436Z,5.30
2018-12-17T12:49:06.266Z,9.93
2018-12-17T12:51:34.548Z,5.93
2018-12-17T12:54:02.362Z,9.33
2018-12-17T12:56:30.477Z,7.73
2018-12-17T12:58:58.736Z,9.60
2018-12-17T13:01:26.874Z,7.43
2018-12-17T13:03:54.934Z,4.60
2018-12-17T13:06:23.356Z,7.73
2018-12-17T13:08:51.287Z,5.83
2018-12-17T13:11:20.826Z,13.20
2018-12-17T13:13:49.686Z,7.53
2018-12-17T13:16:17.992Z,9.07
2018-12-17T13:18:45.996Z,6.87
2018-12-17T13:21:14.137Z,7.33
2018-12-17T13:23:42.169Z,10.30
2018-12-17T13:26:10.215Z,5.43
2018-12-17T13:28:39.508Z,5.47
2018-12-17T13:31:14.657Z,9.87
2018-12-17T13:33:38.970Z,14.80
2018-12-17T13:36:07.204Z,6.53
2018-12-17T13:38:35.301Z,6.07
2018-12-17T13:41:04.090Z,6.33
2018-12-17T13:43:32.073Z,7.30
2018-12-17T13:46:00.156Z,10.40
2018-12-17T13:48:28.190Z,8.20
2018-12-17T13:51:00.587Z,4.00
2018-12-17T13:53:32.361Z,11.53
2018-12-17T13:56:00.307Z,10.90
2018-12-17T13:58:28.133Z,6.70
2018-12-17T14:00:56.518Z,9.20
2018-12-17T14:03:24.497Z,6.10
2018-12-17T14:05:53.042Z,10.83
2018-12-17T14:08:21.165Z,8.47
2018-12-17T14:10:53.147Z,14.27
2018-12-17T14:13:21.827Z,5.07
2018-12-17T14:15:50.880Z,11.33
2018-12-17T14:18:25.125Z,12.67
2018-12-17T14:20:59.003Z,8.17
2018-12-17T14:23:27.143Z,5.70
2018-12-17T14:25:55.442Z,7.93
2018-12-17T14:28:23.306Z,11.53
2018-12-17T14:30:51.574Z,6.47
2018-12-17T14:33:19.461Z,8.90
2018-12-17T14:35:52.978Z,6.80
2018-12-17T14:38:20.948Z,12.17
2018-12-17T14:40:48.991Z,9.03
2018-12-17T14:43:16.845Z,7.13
2018-12-17T14:45:44.691Z,8.40
2018-12-17T14:48:12.806Z,8.97
2018-12-17T14:50:40.892Z,12.20
2018-12-17T14:53:08.915Z,9.87
2018-12-17T14:55:36.789Z,11.80
2018-12-17T14:58:04.884Z,7.63
2018-12-17T15:00:32.899Z,9.53
2018-12-17T15:03:01.004Z,11.37
2018-12-17T15:05:29.496Z,8.73
2018-12-17T15:07:57.560Z,7.13
2018-12-17T15:10:25.637Z,15.40
2018-12-17T15:12:53.702Z,8.67
2018-12-17T15:15:21.553Z,12.23
2018-12-17T15:17:49.643Z,16.33
2018-12-17T15:20:17.535Z,14.80
2018-12-17T15:22:45.563Z,10.23
2018-12-17T15:25:13.419Z,16.57
2018-12-17T15:27:41.717Z,12.77
2018-12-17T15:30:09.579Z,10.67
2018-12-17T15:32:39.776Z,12.57
2018-12-17T15:35:07.873Z,11.27
2018-12-17T15:37:36.281Z,15.23
2018-12-17T15:40:05.375Z,13.20
2018-12-17T15:42:40.600Z,15.43
2018-12-17T15:45:04.969Z,17.60
2018-12-17T15:47:33.281Z,12.60
2018-12-17T15:50:01.738Z,15.10
2018-12-17T15:52:29.627Z,20.73
2018-12-17T15:54:57.879Z,12.40
2018-12-17T15:57:26.139Z,23.07
2018-12-17T15:59:54.445Z,18.50
2018-12-17T16:02:22.882Z,26.13
2018-12-17T16:04:50.966Z,14.37
2018-12-17T16:07:19.029Z,15.47
2018-12-17T16:09:46.879Z,19.50
2018-12-17T16:12:14.817Z,23.30
2018-12-17T16:14:44.074Z,16.27
2018-12-17T16:17:12.137Z,19.60
2018-12-17T16:19:40.649Z,21.37
2018-12-17T16:22:08.709Z,17.27
2018-12-17T16:24:36.967Z,24.33
2018-12-17T16:27:05.066Z,23.35
2018-12-17T16:29:33.129Z,21.97
2018-12-17T16:32:01.421Z,22.67
2018-12-17T16:34:29.437Z,21.07
2018-12-17T16:36:57.536Z,21.57
2018-12-17T16:39:25.620Z,20.53
2018-12-17T16:41:53.472Z,18.33
2018-12-17T16:44:21.755Z,22.40
2018-12-17T16:46:49.899Z,27.57
2018-12-17T16:49:17.737Z,32.73
2018-12-17T16:51:47.075Z,24.37
2018-12-17T16:54:15.108Z,29.70
2018-12-17T16:56:43.211Z,28.83
2018-12-17T16:59:11.304Z,32.90
2018-12-17T17:01:39.362Z,37.50
2018-12-17T17:04:07.260Z,30.70
2018-12-17T17:06:35.308Z,30.47
2018-12-17T17:09:05.221Z,37.73
2018-12-17T17:11:34.641Z,34.73
2018-12-17T17:14:02.561Z,40.53
2018-12-17T17:16:30.499Z,38.93
2018-12-17T17:18:58.742Z,35.07
2018-12-17T17:21:26.604Z,37.93
2018-12-17T17:23:54.649Z,27.00
2018-12-17T17:26:22.737Z,31.93
2018-12-17T17:28:50.620Z,23.60
2018-12-17T17:31:18.591Z,25.87
2018-12-17T17:33:46.605Z,21.97
2018-12-17T17:36:14.981Z,33.53
2018-12-17T17:38:43.078Z,27.90
2018-12-17T17:41:10.968Z,40.03
2018-12-17T17:43:38.981Z,23.83
2018-12-17T17:46:06.815Z,30.77
2018-12-17T17:48:35.140Z,28.47
2018-12-17T17:51:03.124Z,33.53
2018-12-17T17:53:31.016Z,38.03
2018-12-17T17:55:58.929Z,26.90
2018-12-17T17:58:28.577Z,30.03
2018-12-17T18:00:56.602Z,21.90
2018-12-17T18:03:24.834Z,29.70
2018-12-17T18:05:52.678Z,33.07
2018-12-17T18:08:21.114Z,31.37
2018-12-17T18:10:49.454Z,29.63
2018-12-17T18:13:17.493Z,27.93
2018-12-17T18:15:45.562Z,31.23
2018-12-17T18:18:15.022Z,27.73
2018-12-17T18:20:43.275Z,28.10
2018-12-17T18:23:11.411Z,32.07
2018-12-17T18:25:39.271Z,24.60
2018-12-17T18:28:07.207Z,27.67
2018-12-17T18:30:35.021Z,36.67
2018-12-17T18:33:03.056Z,31.27
2018-12-17T18:35:30.972Z,26.20
2018-12-17T18:38:00.475Z,30.23
2018-12-17T18:40:28.497Z,35.97
2018-12-17T18:42:56.624Z,26.97
2018-12-17T18:45:31.645Z,29.43
2018-12-17T18:47:59.655Z,33.33
2018-12-17T18:50:27.690Z,42.23
2018-12-17T18:52:55.781Z,43.80
2018-12-17T18:55:23.939Z,32.00
2018-12-17T18:57:51.783Z,42.73
2018-12-17T19:00:19.971Z,56.13
2018-12-17T19:02:48.154Z,43.33
2018-12-17T19:05:16.190Z,50.40
2018-12-17T19:07:44.266Z,47.20
2018-12-17T19:10:12.517Z,50.37
2018-12-17T19:12:40.387Z,53.57
2018-12-17T19:15:08.912Z,49.20
2018-12-17T19:17:36.763Z,50.63
2018-12-17T19:20:04.959Z,36.03
2018-12-17T19:22:33.162Z,48.80
2018-12-17T19:25:01.790Z,47.73
2018-12-17T19:27:29.659Z,34.13
2018-12-17T19:29:57.927Z,40.00
2018-12-17T19:32:25.750Z,47.73
2018-12-17T19:34:54.869Z,41.77
2018-12-17T19:37:23.985Z,47.77
2018-12-17T19:39:52.190Z,53.80
2018-12-17T19:42:20.242Z,47.63
2018-12-17T19:44:48.518Z,44.83
2018-12-17T19:47:16.610Z,49.43
2018-12-17T19:49:44.442Z,52.93
2018-12-17T19:52:13.574Z,49.80
2018-12-17T19:54:41.588Z,51.30
2018-12-17T19:57:09.887Z,58.93
2018-12-17T19:59:37.957Z,52.27
2018-12-17T20:02:06.433Z,68.43
2018-12-17T20:04:34.340Z,65.07
2018-12-17T20:07:02.414Z,63.80
2018-12-17T20:09:30.454Z,70.70
2018-12-17T20:11:58.724Z,64.03
2018-12-17T20:14:26.591Z,61.80
2018-12-17T20:16:54.702Z,65.00
2018-12-17T20:19:22.700Z,62.70
2018-12-17T20:21:50.695Z,51.57
2018-12-17T20:24:18.547Z,53.30
2018-12-17T20:26:46.723Z,56.83
2018-12-17T20:29:14.792Z,54.60
2018-12-17T20:31:42.867Z,55.50
2018-12-17T20:34:11.781Z,54.37
2018-12-17T20:36:40.024Z,48.13
2018-12-17T20:39:08.095Z,55.87
2018-12-17T20:41:36.183Z,49.87
2018-12-17T20:44:04.237Z,45.17
2018-12-17T20:46:32.071Z,52.67
2018-12-17T20:49:00.420Z,53.23
2018-12-17T20:51:28.357Z,56.53
2018-12-17T20:53:56.539Z,56.17
2018-12-17T20:56:25.333Z,51.10
2018-12-17T20:58:53.675Z,57.87
2018-12-17T21:01:21.743Z,53.43
2018-12-17T21:03:49.619Z,57.77
2018-12-17T21:06:17.689Z,46.10
2018-12-17T21:08:45.675Z,48.70
2018-12-17T21:11:13.627Z,52.67
2018-12-17T21:13:41.707Z,50.57
2018-12-17T21:16:09.787Z,42.40
2018-12-17T21:18:42.952Z,38.43
2018-12-17T21:21:10.830Z,36.83
2018-12-17T21:23:39.048Z,45.07
2018-12-17T21:26:06.869Z,40.93
2018-12-17T21:28:35.319Z,37.73
2018-12-17T21:31:03.136Z,41.47
2018-12-17T21:33:31.038Z,40.10
2018-12-17T21:35:59.258Z,42.60
2018-12-17T21:38:27.347Z,40.27
2018-12-17T21:40:55.276Z,37.63
2018-12-17T21:43:23.271Z,40.13
2018-12-17T21:45:51.306Z,46.30
2018-12-17T21:48:19.412Z,42.77
2018-12-17T21:50:47.485Z,34.93
2018-12-17T21:53:16.516Z,45.53
2018-12-17T21:55:44.340Z,44.23
2018-12-17T21:58:12.198Z,37.33
2018-12-17T22:00:40.333Z,37.27
2018-12-17T22:03:13.279Z,45.13
2018-12-17T22:05:38.431Z,49.23
2018-12-17T22:08:06.515Z,54.10
2018-12-17T22:10:34.309Z,54.83
2018-12-17T22:13:02.575Z,59.17
2018-12-17T22:15:30.954Z,67.97
2018-12-17T22:17:58.883Z,76.87
2018-12-17T22:20:26.951Z,82.53
2018-12-17T22:22:55.001Z,76.47
2018-12-17T22:25:22.899Z,74.20
2018-12-17T22:27:50.956Z,81.10
2018-12-17T22:30:18.794Z,71.17
2018-12-17T22:32:46.835Z,86.67
2018-12-17T22:35:14.798Z,79.07
2018-12-17T22:37:42.835Z,84.17
2018-12-17T22:40:10.650Z,89.50
2018-12-17T22:42:38.550Z,76.63
2018-12-17T22:45:07.260Z,88.60
2018-12-17T22:47:35.330Z,86.80
2018-12-17T22:50:03.909Z,93.07
2018-12-17T22:52:31.748Z,85.17
2018-12-17T22:55:00.614Z,90.83
2018-12-17T22:57:28.638Z,80.53
2018-12-17T22:59:56.561Z,87.67
2018-12-17T23:02:25.816Z,88.13
2018-12-17T23:04:54.283Z,93.80
2018-12-17T23:07:22.259Z,99.37
2018-12-17T23:09:55.766Z,87.37
2018-12-17T23:12:29.116Z,76.60
2018-12-17T23:15:02.854Z,84.23
2018-12-17T23:17:37.521Z,78.23
2018-12-17T23:20:05.544Z,84.87
2018-12-17T23:22:33.582Z,83.23
2018-12-17T23:25:01.527Z,83.00
2018-12-17T23:27:29.346Z,77.40
2018-12-17T23:29:57.355Z,84.03
2018-12-17T23:32:27.423Z,67.77
2018-12-17T23:34:55.355Z,73.07
2018-12-17T23:37:23.266Z,67.57
2018-12-17T23:39:52.334Z,70.73
2018-12-17T23:42:20.349Z,67.27
2018-12-17T23:44:48.247Z,75.23
2018-12-17T23:47:16.115Z,72.40
2018-12-17T23:49:43.968Z,64.27
2018-12-17T23:52:11.864Z,85.33
2018-12-17T23:54:39.672Z,72.10
2018-12-17T23:57:07.790Z,72.07
2018-12-17T23:59:36.928Z,71.80
